Time,TemperatureF,DewpointF,PressureIn,WindDirection,WindDirectionDegrees,WindSpeedMPH,WindSpeedGustMPH,Humidity,HourlyPrecipIn,Conditions,Clouds,dailyrainin,SoftwareType,DateUTC
2013-05-10 00:02:00,52.7,48.9,29.91,South,180,4.2,-999.0,87,-99.99,,,0.00,Acu-Link.com,2013-05-10 07:02:00,
2013-05-10 00:17:00,52.3,48.9,29.91,West,270,5.3,-999.0,88,-99.99,,,0.00,Acu-Link.com,2013-05-10 07:17:00,
2013-05-10 00:32:00,52.2,48.8,29.91,South,180,4.2,-999.0,88,-99.99,,,0.00,Acu-Link.com,2013-05-10 07:32:00,
2013-05-10 00:48:00,52.0,48.9,29.91,WSW,247,2.7,-999.0,89,-99.99,,,0.00,Acu-Link.com,2013-05-10 07:48:00,
2013-05-10 01:03:00,52.2,49.1,29.92,ESE,112,2.7,-999.0,89,-99.99,,,0.00,Acu-Link.com,2013-05-10 08:03:00,
2013-05-10 01:18:00,52.2,49.1,29.92,SSW,202,2.7,-999.0,89,-99.99,,,0.00,Acu-Link.com,2013-05-10 08:18:00,
2013-05-10 01:34:00,52.2,49.1,29.92,West,270,3.7,-999.0,89,-99.99,,,0.00,Acu-Link.com,2013-05-10 08:34:00,
2013-05-10 01:49:00,52.0,48.9,29.91,WNW,292,3.2,-999.0,89,-99.99,,,0.00,Acu-Link.com,2013-05-10 08:49:00,
2013-05-10 02:04:00,52.3,49.2,29.91,NW,315,3.2,-999.0,89,-99.99,,,0.00,Acu-Link.com,2013-05-10 09:04:00,
2013-05-10 02:19:00,52.2,49.1,29.90,NNW,337,2.7,-999.0,89,-99.99,,,0.00,Acu-Link.com,2013-05-10 09:19:00,
2013-05-10 02:35:00,51.8,48.7,29.89,WNW,292,4.2,-999.0,89,-99.99,,,0.00,Acu-Link.com,2013-05-10 09:35:00,
2013-05-10 02:50:00,51.4,48.6,29.89,ENE,67,1.7,-999.0,90,-99.99,,,0.00,Acu-Link.com,2013-05-10 09:50:00,
2013-05-10 03:05:00,51.3,48.5,29.89,SW,225,1.7,-999.0,90,-99.99,,,0.00,Acu-Link.com,2013-05-10 10:05:00,
2013-05-10 03:20:00,51.3,48.8,29.89,North,0,2.2,-999.0,91,-99.99,,,0.00,Acu-Link.com,2013-05-10 10:20:00,
2013-05-10 03:35:00,51.1,48.6,29.89,South,180,0.0,-999.0,91,-99.99,,,0.00,Acu-Link.com,2013-05-10 10:35:00,
2013-05-10 03:51:00,50.9,48.4,29.89,WSW,247,3.2,-999.0,91,-99.99,,,0.00,Acu-Link.com,2013-05-10 10:51:00,
2013-05-10 04:06:00,50.7,48.5,29.88,South,180,1.1,-999.0,92,-99.99,,,0.00,Acu-Link.com,2013-05-10 11:06:00,
2013-05-10 04:21:00,50.5,48.3,29.88,SSW,202,1.1,-999.0,92,-99.99,,,0.00,Acu-Link.com,2013-05-10 11:21:00,
2013-05-10 04:36:00,50.5,48.3,29.88,NW,315,1.7,-999.0,92,-99.99,,,0.00,Acu-Link.com,2013-05-10 11:36:00,
2013-05-10 04:52:00,50.4,48.5,29.87,West,270,0.0,-999.0,93,-99.99,,,0.00,Acu-Link.com,2013-05-10 11:52:00,
2013-05-10 05:07:00,50.2,48.3,29.87,SSW,202,2.2,-999.0,93,-99.99,,,0.00,Acu-Link.com,2013-05-10 12:07:00,
2013-05-10 05:22:00,50.5,48.6,29.88,West,270,1.1,-999.0,93,-99.99,,,0.00,Acu-Link.com,2013-05-10 12:22:00,
2013-05-10 05:37:00,50.2,48.3,29.88,SW,225,0.0,-999.0,93,-99.99,,,0.00,Acu-Link.com,2013-05-10 12:37:00,
2013-05-10 05:53:00,50.4,48.5,29.88,West,270,0.0,-999.0,93,-99.99,,,0.00,Acu-Link.com,2013-05-10 12:53:00,
2013-05-10 06:08:00,50.0,48.1,29.89,West,270,0.0,-999.0,93,-99.99,,,0.00,Acu-Link.com,2013-05-10 13:08:00,
2013-05-10 06:23:00,50.0,48.3,29.89,WSW,247,0.0,-999.0,94,-99.99,,,0.00,Acu-Link.com,2013-05-10 13:23:00,
2013-05-10 06:39:00,50.5,48.8,29.90,South,180,0.0,-999.0,94,-99.99,,,0.00,Acu-Link.com,2013-05-10 13:39:00,
2013-05-10 06:54:00,51.1,49.4,29.90,North,0,1.1,-999.0,94,-99.99,,,0.00,Acu-Link.com,2013-05-10 13:54:00,
2013-05-10 07:09:00,52.9,50.6,29.91,SW,225,1.7,-999.0,92,-99.99,,,0.00,Acu-Link.com,2013-05-10 14:09:00,
2013-05-10 07:25:00,55.2,51.1,29.92,NE,45,0.0,-999.0,86,-99.99,,,0.00,Acu-Link.com,2013-05-10 14:25:00,
2013-05-10 07:40:00,57.2,51.8,29.92,WNW,292,2.7,-999.0,82,-99.99,,,0.00,Acu-Link.com,2013-05-10 14:40:00,
2013-05-10 07:55:00,59.5,53.0,29.93,NW,315,0.0,-999.0,79,-99.99,,,0.00,Acu-Link.com,2013-05-10 14:55:00,
2013-05-10 08:10:00,61.7,53.3,29.93,SSW,202,2.7,-999.0,74,-99.99,,,0.00,Acu-Link.com,2013-05-10 15:10:00,
2013-05-10 08:26:00,61.0,53.7,29.93,SW,225,0.0,-999.0,77,-99.99,,,0.00,Acu-Link.com,2013-05-10 15:26:00,
2013-05-10 08:41:00,61.7,53.3,29.93,West,270,2.7,-999.0,74,-99.99,,,0.00,Acu-Link.com,2013-05-10 15:41:00,
2013-05-10 08:56:00,63.0,54.6,29.93,SSE,157,1.7,-999.0,74,-99.99,,,0.00,Acu-Link.com,2013-05-10 15:56:00,
2013-05-10 09:12:00,63.7,54.5,29.93,SSE,157,2.7,-999.0,72,-99.99,,,0.00,Acu-Link.com,2013-05-10 16:12:00,
2013-05-10 09:27:00,64.8,54.4,29.93,ESE,112,3.7,-999.0,69,-99.99,,,0.00,Acu-Link.com,2013-05-10 16:27:00,
2013-05-10 09:42:00,65.8,55.3,29.93,NNW,337,1.7,-999.0,69,-99.99,,,0.00,Acu-Link.com,2013-05-10 16:42:00,
2013-05-10 09:58:00,67.3,55.5,29.93,SW,225,3.7,-999.0,66,-99.99,,,0.00,Acu-Link.com,2013-05-10 16:58:00,
2013-05-10 10:13:00,67.8,55.6,29.94,SSE,157,3.2,-999.0,65,-99.99,,,0.00,Acu-Link.com,2013-05-10 17:13:00,
2013-05-10 10:28:00,68.5,56.3,29.94,ENE,67,2.2,-999.0,65,-99.99,,,0.00,Acu-Link.com,2013-05-10 17:28:00,
2013-05-10 10:44:00,69.1,56.4,29.94,South,180,1.7,-999.0,64,-99.99,,,0.00,Acu-Link.com,2013-05-10 17:44:00,
2013-05-10 10:59:00,68.2,56.0,29.94,South,180,1.7,-999.0,65,-99.99,,,0.00,Acu-Link.com,2013-05-10 17:59:00,
2013-05-10 11:14:00,70.7,57.0,29.94,ESE,112,1.1,-999.0,62,-99.99,,,0.00,Acu-Link.com,2013-05-10 18:14:00,
2013-05-10 11:30:00,71.8,57.6,29.94,SE,135,1.7,-999.0,61,-99.99,,,0.00,Acu-Link.com,2013-05-10 18:30:00,
2013-05-10 11:45:00,72.3,59.0,29.94,NNE,22,1.1,-999.0,63,-99.99,,,0.00,Acu-Link.com,2013-05-10 18:45:00,
2013-05-10 12:00:00,73.2,57.5,29.93,NE,45,2.7,-999.0,58,-99.99,,,0.00,Acu-Link.com,2013-05-10 19:00:00,
2013-05-10 12:15:00,74.1,58.4,29.92,South,180,5.3,-999.0,58,-99.99,,,0.00,Acu-Link.com,2013-05-10 19:15:00,
2013-05-10 12:31:00,75.4,58.6,29.92,South,180,1.7,-999.0,56,-99.99,,,0.00,Acu-Link.com,2013-05-10 19:31:00,
2013-05-10 12:46:00,76.6,58.7,29.91,SSE,157,4.7,-999.0,54,-99.99,,,0.00,Acu-Link.com,2013-05-10 19:46:00,
2013-05-10 13:01:00,77.0,60.1,29.90,West,270,3.2,-999.0,56,-99.99,,,0.00,Acu-Link.com,2013-05-10 20:01:00,
2013-05-10 13:16:00,78.8,61.2,29.90,South,180,4.2,-999.0,55,-99.99,,,0.00,Acu-Link.com,2013-05-10 20:16:00,
2013-05-10 13:32:00,79.2,61.1,29.89,SE,135,4.7,-999.0,54,-99.99,,,0.00,Acu-Link.com,2013-05-10 20:32:00,
2013-05-10 13:47:00,80.1,60.9,29.88,SW,225,3.2,-999.0,52,-99.99,,,0.00,Acu-Link.com,2013-05-10 20:47:00,
2013-05-10 14:02:00,80.8,60.4,29.88,WNW,292,4.2,-999.0,50,-99.99,,,0.00,Acu-Link.com,2013-05-10 21:02:00,
2013-05-10 14:17:00,81.1,60.1,29.87,East,90,2.7,-999.0,49,-99.99,,,0.00,Acu-Link.com,2013-05-10 21:17:00,
2013-05-10 14:32:00,80.4,60.0,29.87,West,270,7.3,-999.0,50,-99.99,,,0.00,Acu-Link.com,2013-05-10 21:32:00,
2013-05-10 14:48:00,82.2,60.5,29.87,NE,45,4.2,-999.0,48,-99.99,,,0.00,Acu-Link.com,2013-05-10 21:48:00,
2013-05-10 15:03:00,81.1,60.1,29.87,East,90,5.3,-999.0,49,-99.99,,,0.00,Acu-Link.com,2013-05-10 22:03:00,
2013-05-10 15:18:00,81.5,60.5,29.86,ENE,67,2.7,-999.0,49,-99.99,,,0.00,Acu-Link.com,2013-05-10 22:18:00,
2013-05-10 15:33:00,81.3,60.3,29.86,West,270,2.7,-999.0,49,-99.99,,,0.00,Acu-Link.com,2013-05-10 22:33:00,
2013-05-10 15:49:00,81.1,60.7,29.85,South,180,5.8,-999.0,50,-99.99,,,0.00,Acu-Link.com,2013-05-10 22:49:00,
2013-05-10 16:04:00,80.4,60.0,29.84,WNW,292,5.8,-999.0,50,-99.99,,,0.00,Acu-Link.com,2013-05-10 23:04:00,
2013-05-10 16:19:00,80.6,60.2,29.83,SSE,157,2.7,-999.0,50,-99.99,,,0.00,Acu-Link.com,2013-05-10 23:19:00,
2013-05-10 16:35:00,80.1,59.2,29.83,SW,225,5.3,-999.0,49,-99.99,,,0.00,Acu-Link.com,2013-05-10 23:35:00,
2013-05-10 16:50:00,78.1,59.6,29.83,West,270,2.7,-999.0,53,-99.99,,,0.00,Acu-Link.com,2013-05-10 23:50:00,
2013-05-10 17:05:00,77.5,57.9,29.82,NW,315,2.2,-999.0,51,-99.99,,,0.00,Acu-Link.com,2013-05-11 00:05:00,
2013-05-10 17:20:00,77.4,58.4,29.83,SW,225,5.8,-999.0,52,-99.99,,,0.00,Acu-Link.com,2013-05-11 00:20:00,
2013-05-10 17:35:00,76.1,57.7,29.83,WSW,247,4.2,-999.0,53,-99.99,,,0.00,Acu-Link.com,2013-05-11 00:35:00,
2013-05-10 17:51:00,77.5,57.4,29.83,SSE,157,3.2,-999.0,50,-99.99,,,0.00,Acu-Link.com,2013-05-11 00:51:00,
2013-05-10 18:06:00,76.1,56.1,29.82,ESE,112,3.7,-999.0,50,-99.99,,,0.00,Acu-Link.com,2013-05-11 01:06:00,
2013-05-10 18:21:00,74.7,55.9,29.82,SSW,202,2.2,-999.0,52,-99.99,,,0.00,Acu-Link.com,2013-05-11 01:21:00,
2013-05-10 18:37:00,73.2,55.5,29.83,SSW,202,1.7,-999.0,54,-99.99,,,0.00,Acu-Link.com,2013-05-11 01:37:00,
2013-05-10 18:52:00,71.6,55.1,29.83,WNW,292,1.7,-999.0,56,-99.99,,,0.00,Acu-Link.com,2013-05-11 01:52:00,
2013-05-10 19:07:00,67.8,56.8,29.82,SW,225,2.7,-999.0,68,-99.99,,,0.00,Acu-Link.com,2013-05-11 02:07:00,
2013-05-10 19:22:00,65.7,54.4,29.82,WSW,247,2.7,-999.0,67,-99.99,,,0.00,Acu-Link.com,2013-05-11 02:22:00,
2013-05-10 19:37:00,63.9,54.3,29.83,ENE,67,2.7,-999.0,71,-99.99,,,0.00,Acu-Link.com,2013-05-11 02:37:00,
2013-05-10 19:52:00,61.5,53.5,29.83,West,270,4.2,-999.0,75,-99.99,,,0.00,Acu-Link.com,2013-05-11 02:52:00,
2013-05-10 20:08:00,61.3,52.9,29.84,SSW,202,2.2,-999.0,74,-99.99,,,0.00,Acu-Link.com,2013-05-11 03:08:00,
2013-05-10 20:23:00,60.1,52.5,29.84,SSE,157,4.2,-999.0,76,-99.99,,,0.01,Acu-Link.com,2013-05-11 03:23:00,
2013-05-10 20:38:00,59.7,52.1,29.85,SSE,157,2.7,-999.0,76,-99.99,,,0.01,Acu-Link.com,2013-05-11 03:38:00,
2013-05-10 20:54:00,59.0,51.8,29.85,WNW,292,2.2,-999.0,77,-99.99,,,0.01,Acu-Link.com,2013-05-11 03:54:00,
2013-05-10 21:09:00,59.0,51.8,29.85,NNW,337,4.2,-999.0,77,-99.99,,,0.01,Acu-Link.com,2013-05-11 04:09:00,
2013-05-10 21:24:00,58.8,51.6,29.85,South,180,2.2,-999.0,77,-99.99,,,0.01,Acu-Link.com,2013-05-11 04:24:00,
2013-05-10 21:40:00,58.8,51.6,29.86,West,270,2.2,-999.0,77,-99.99,,,0.01,Acu-Link.com,2013-05-11 04:40:00,
2013-05-10 21:55:00,58.1,51.3,29.86,SSW,202,0.0,-999.0,78,-99.99,,,0.01,Acu-Link.com,2013-05-11 04:55:00,
2013-05-10 22:10:00,58.5,51.7,29.87,SSW,202,2.7,-999.0,78,-99.99,,,0.01,Acu-Link.com,2013-05-11 05:10:00,
2013-05-10 22:26:00,57.7,51.6,29.87,NNW,337,1.7,-999.0,80,-99.99,,,0.01,Acu-Link.com,2013-05-11 05:26:00,
2013-05-10 22:41:00,57.4,51.6,29.86,WNW,292,1.7,-999.0,81,-99.99,,,0.01,Acu-Link.com,2013-05-11 05:41:00,
2013-05-10 22:56:00,57.4,51.9,29.86,WNW,292,3.2,-999.0,82,-99.99,,,0.01,Acu-Link.com,2013-05-11 05:56:00,
2013-05-10 23:11:00,57.2,52.1,29.86,SSE,157,2.7,-999.0,83,-99.99,,,0.01,Acu-Link.com,2013-05-11 06:11:00,
2013-05-10 23:27:00,57.0,52.2,29.86,NW,315,2.2,-999.0,84,-99.99,,,0.01,Acu-Link.com,2013-05-11 06:27:00,
2013-05-10 23:42:00,56.8,52.0,29.86,ESE,112,0.0,-999.0,84,-99.99,,,0.01,Acu-Link.com,2013-05-11 06:42:00,
2013-05-10 23:57:00,56.5,52.0,29.87,ESE,112,1.7,-999.0,85,-99.99,,,0.01,Acu-Link.com,2013-05-11 06:57:00,